TNCB Airport Information

Runway Information
Runway 10 Length 9449 ft width 148 ft
Elevation 14 ft Threshold 0 ft Heading 92
Runway 28 Length 9449 ft Width 148 ft
Elevation 20 ft Threshold 0 ft Heading 272
Airport Frequencies
Type TWR Name TWR Frequency 118.7 MHZ
Airport Navaids
Type NDB Name Bonaire Frequency 321 KHZ
Airport Weather Information & NOTAM
ADDS - METARS form results

(0027 UTC 24 March 2019)
Data provider http://aviationweather.gov/metar/data/
 
METAR text: TNCB 232355Z AUTO 08013KT 9999 NCD 27/22 Q1014
Conditions at: TNCB (BONAIRE/FLAMINGO, AN) observed 2355 UTC 23 March 2019
Temperature: 27.0°C (81°F)
Dewpoint: 22.0°C (72°F) [RH = 74%]
Pressure (altimeter): 29.94 inches Hg (1014.0 mb)
Winds: from the E (80 degrees) at 15 MPH (13 knots; 6.7 m/s)
Visibility: 6 or more miles (10+ km)
Ceiling: at least 12,000 feet AGL
Clouds: sky clear below 12,000 feet AGL
Weather: no significant weather observed at this time

Forecast for: TNCB (BONAIRE/FLAMINGO, AN)
Text: TAF TNCB 232246Z 2400/2506 09015KT 9999 SCT017
Forecast period: 0000 UTC 24 March 2019 to 0600 UTC 25 March 2019
Forecast type: FROM: standard forecast or significant change
Winds: from the E (90 degrees) at 17 MPH (15 knots; 7.7 m/s)
Visibility: 6 or more miles 10+ km)
Ceiling: at least 12,000 feet AGL
Clouds: scattered clouds at 1700 feet AGL
Weather: no significant weather forecast for this period